Saugatuck, Connecticut
Current Conditions -  °F | °C
As of 9:52 PM on Saturday 20 Dec 2014 (Local Time) from KBDR Reporting Station
Overcast Overcast  
Wind Chill: 29°   Ceiling: 2800
Heat Index: 33°   Visibility: 10mi
Dew Point: 27°   Wind: 5mph
Humidity: 78%   Direction: 330°NNW
Pressure: 30.29"   Gusts: NA
Location:  41.1454°N, 73.3462°W
Report Text: KBDR 210252Z AUTO 33004KT 10SM OVC028 01/M03 A3029 RMK AO2 SLP257 T00061028 55000 TSNO
Loading
Personal Weather Stations






























Interactive Weather Map New forecast layout! Learn more

10-Day Weather Forecast

Advertisements
Track Severe Weather on mobile